Time;durP1;ratioP1;P1;durP2;ratioP2;P2;SDS_P1;SDS_P2;PMS_P1;PMS_P2;Temp;Humidity;BMP_temperature;BMP_pressure;BME280_temperature;BME280_humidity;BME280_pressure;Samples;Min_cycle;Max_cycle;Signal;HPM_P1;HPM_P2
2023/05/17 00:00:20;;;;;;;14.32;4.05;;;8.30;99.90;;;;;;5036972;28;20055;-58
2023/05/17 00:02:46;;;;;;;10.48;3.40;;;8.20;99.90;;;;;;5038222;28;20029;-56
2023/05/17 00:05:11;;;;;;;12.82;3.95;;;8.20;99.90;;;;;;5037080;28;20033;-58
2023/05/17 00:07:37;;;;;;;10.75;3.17;;;8.10;99.90;;;;;;5017332;28;20030;-55
2023/05/17 00:10:03;;;;;;;14.00;4.05;;;8.10;99.90;;;;;;5036448;28;20040;-54
2023/05/17 00:12:28;;;;;;;8.52;3.95;;;8.00;99.90;;;;;;5037550;28;20030;-55
2023/05/17 00:14:54;;;;;;;10.10;4.35;;;8.00;99.90;;;;;;5038606;28;20060;-54
2023/05/17 00:17:19;;;;;;;11.48;3.33;;;8.00;99.90;;;;;;5037897;28;20498;-57
2023/05/17 00:19:45;;;;;;;11.05;3.60;;;8.00;99.90;;;;;;5038079;28;20407;-56
2023/05/17 00:22:11;;;;;;;14.30;3.63;;;7.90;99.90;;;;;;5036936;28;20024;-54
2023/05/17 00:24:36;;;;;;;8.57;3.45;;;7.90;99.90;;;;;;5037955;28;20077;-55
2023/05/17 00:27:02;;;;;;;9.32;3.78;;;7.90;99.90;;;;;;5037130;28;20115;-56
2023/05/17 00:29:27;;;;;;;13.60;3.50;;;7.80;99.90;;;;;;5038232;28;20222;-54
2023/05/17 00:31:53;;;;;;;13.95;3.72;;;7.80;99.90;;;;;;5036647;28;20033;-57
2023/05/17 00:34:19;;;;;;;10.05;3.10;;;7.80;99.90;;;;;;5037241;28;20051;-56
2023/05/17 00:36:44;;;;;;;17.75;3.72;;;7.70;99.90;;;;;;5036897;28;20040;-57
2023/05/17 00:39:09;;;;;;;12.27;3.05;;;7.70;99.90;;;;;;5035271;28;20491;-58
2023/05/17 00:41:35;;;;;;;10.13;3.75;;;7.60;99.90;;;;;;5036127;28;20028;-54
2023/05/17 00:44:01;;;;;;;14.20;3.50;;;7.60;99.90;;;;;;5037042;28;20025;-57
2023/05/17 00:46:26;;;;;;;11.52;3.88;;;7.60;99.90;;;;;;5037952;28;20016;-57
2023/05/17 00:48:52;;;;;;;12.45;4.18;;;7.70;99.90;;;;;;5037753;28;20017;-57
2023/05/17 00:51:19;;;;;;;9.32;3.22;;;7.70;99.90;;;;;;5038459;28;20029;-57
2023/05/17 00:53:45;;;;;;;12.45;3.78;;;7.70;99.90;;;;;;5036985;28;20032;-58
2023/05/17 00:56:11;;;;;;;11.60;4.47;;;7.70;99.90;;;;;;5037432;28;20022;-57
2023/05/17 00:58:37;;;;;;;13.02;3.40;;;7.70;99.90;;;;;;5034344;28;20025;-58
2023/05/17 01:01:03;;;;;;;8.20;3.45;;;7.70;99.90;;;;;;5016434;28;20675;-57
2023/05/17 01:03:28;;;;;;;5.57;3.22;;;7.70;99.90;;;;;;5035350;28;20017;-57
2023/05/17 01:05:57;;;;;;;11.48;3.35;;;7.60;99.90;;;;;;5038261;28;20554;-56
2023/05/17 01:08:23;;;;;;;9.02;3.35;;;7.60;99.90;;;;;;5035815;28;20030;-53
2023/05/17 01:10:48;;;;;;;12.77;3.63;;;7.60;99.90;;;;;;5037398;28;20503;-57
2023/05/17 01:13:14;;;;;;;16.75;3.85;;;7.60;99.90;;;;;;5033979;28;20263;-57
2023/05/17 01:15:49;;;;;;;13.85;3.78;;;7.50;99.90;;;;;;5035611;28;20040;-58
2023/05/17 01:18:31;;;;;;;13.70;3.60;;;7.50;99.90;;;;;;5035681;28;20029;-58
2023/05/17 01:21:00;;;;;;;12.55;3.95;;;7.40;99.90;;;;;;5035047;28;20034;-60
2023/05/17 01:23:49;;;;;;;10.60;3.15;;;7.30;99.90;;;;;;5018628;28;20029;-57
2023/05/17 01:26:40;;;;;;;11.10;2.92;;;7.30;99.90;;;;;;5018751;28;20037;-55
2023/05/17 01:29:08;;;;;;;13.57;2.95;;;7.30;99.90;;;;;;5037290;28;20108;-57
2023/05/17 01:31:35;;;;;;;10.93;2.83;;;7.20;99.90;;;;;;5035791;28;20091;-57
2023/05/17 01:34:05;;;;;;;6.30;2.17;;;7.20;99.90;;;;;;5036397;28;20392;-56
2023/05/17 01:36:30;;;;;;;9.52;3.30;;;7.20;99.90;;;;;;5035894;28;20049;-58
2023/05/17 01:38:59;;;;;;;8.38;2.72;;;7.20;99.90;;;;;;5037055;28;20045;-57
2023/05/17 01:41:39;;;;;;;10.77;3.28;;;7.10;99.90;;;;;;5034777;28;20448;-54
2023/05/17 01:44:16;;;;;;;11.77;3.30;;;7.00;99.90;;;;;;5036242;28;20025;-56
2023/05/17 01:46:42;;;;;;;12.10;3.00;;;7.00;99.90;;;;;;5036505;28;20120;-57
2023/05/17 01:49:22;;;;;;;8.45;3.20;;;7.00;99.90;;;;;;5037093;28;20037;-56
2023/05/17 01:52:04;;;;;;;15.55;3.60;;;7.00;99.90;;;;;;5036550;28;20024;-58
2023/05/17 01:54:42;;;;;;;13.43;3.38;;;6.90;99.90;;;;;;5036921;28;20028;-55
2023/05/17 01:57:09;;;;;;;13.48;2.97;;;6.90;99.90;;;;;;5036334;28;20425;-53
2023/05/17 01:59:37;;;;;;;10.00;3.17;;;6.90;99.90;;;;;;5036821;28;20126;-58
2023/05/17 02:02:07;;;;;;;13.77;2.78;;;6.80;99.90;;;;;;5036013;28;20028;-58
2023/05/17 02:04:35;;;;;;;11.52;2.72;;;6.80;99.90;;;;;;5035865;28;20017;-56
2023/05/17 02:07:01;;;;;;;14.57;2.97;;;6.80;99.90;;;;;;5036008;28;20010;-56
2023/05/17 02:09:27;;;;;;;13.68;3.60;;;6.80;99.90;;;;;;5018310;28;20033;-56
2023/05/17 02:11:52;;;;;;;9.40;2.97;;;6.80;99.90;;;;;;5035643;28;20214;-57
2023/05/17 02:14:18;;;;;;;10.88;2.83;;;6.70;99.90;;;;;;5036318;28;20037;-57
2023/05/17 02:16:43;;;;;;;7.63;2.88;;;6.70;99.90;;;;;;5033918;28;20028;-57
2023/05/17 02:19:11;;;;;;;9.02;2.70;;;6.60;99.90;;;;;;5032791;28;20487;-58
2023/05/17 02:21:37;;;;;;;8.13;2.47;;;6.60;99.90;;;;;;5033139;28;20033;-56
2023/05/17 02:24:03;;;;;;;9.30;3.25;;;6.50;99.90;;;;;;5036008;28;20403;-58
2023/05/17 02:26:30;;;;;;;11.93;2.92;;;6.50;99.90;;;;;;5033643;28;20025;-57
2023/05/17 02:28:56;;;;;;;8.77;2.58;;;6.50;99.90;;;;;;5035562;28;20167;-55
2023/05/17 02:31:23;;;;;;;10.20;2.80;;;6.50;99.90;;;;;;5034294;28;20117;-56
2023/05/17 02:33:49;;;;;;;11.40;3.65;;;6.40;99.90;;;;;;5035000;28;20021;-52
2023/05/17 02:36:14;;;;;;;11.25;2.40;;;6.40;99.90;;;;;;5034858;28;20177;-56
2023/05/17 02:38:40;;;;;;;9.50;2.42;;;6.40;99.90;;;;;;5035219;28;20021;-56
2023/05/17 02:41:06;;;;;;;11.55;3.13;;;6.40;99.90;;;;;;5034813;28;20152;-54
2023/05/17 02:43:31;;;;;;;6.55;2.63;;;6.30;99.90;;;;;;5036254;28;20025;-53
2023/05/17 02:45:57;;;;;;;12.63;2.33;;;6.30;99.90;;;;;;5035187;28;20571;-54
2023/05/17 02:48:22;;;;;;;6.38;1.90;;;6.20;99.90;;;;;;5034439;28;20030;-55
2023/05/17 02:50:48;;;;;;;10.40;2.30;;;6.20;99.90;;;;;;5036089;28;20574;-57
2023/05/17 02:53:13;;;;;;;13.13;2.22;;;6.20;99.90;;;;;;5034960;28;20458;-58
2023/05/17 02:55:39;;;;;;;8.95;2.22;;;6.10;99.90;;;;;;5036245;28;20037;-52
2023/05/17 02:58:04;;;;;;;10.20;2.75;;;6.20;99.90;;;;;;5036075;28;20035;-56
2023/05/17 03:00:30;;;;;;;11.40;2.42;;;6.20;99.90;;;;;;5032933;28;20407;-56
2023/05/17 03:02:56;;;;;;;8.38;2.80;;;6.20;99.90;;;;;;5034000;28;20108;-56
2023/05/17 03:05:21;;;;;;;7.18;2.50;;;6.20;99.90;;;;;;5033315;28;20136;-55
2023/05/17 03:07:47;;;;;;;10.40;2.75;;;6.20;99.90;;;;;;5034294;28;20033;-58
2023/05/17 03:10:12;;;;;;;12.20;2.92;;;6.20;99.90;;;;;;5034967;28;20025;-58
2023/05/17 03:12:38;;;;;;;10.27;2.38;;;6.10;99.90;;;;;;5034951;28;20024;-57
2023/05/17 03:15:04;;;;;;;8.90;1.92;;;6.10;99.90;;;;;;5034189;28;20025;-55
2023/05/17 03:17:30;;;;;;;5.60;2.22;;;6.10;99.90;;;;;;5033148;28;20025;-58
2023/05/17 03:19:55;;;;;;;10.38;2.35;;;6.10;99.90;;;;;;5035297;28;20514;-56
2023/05/17 03:22:21;;;;;;;7.82;2.45;;;6.10;99.90;;;;;;5015721;28;20502;-58
2023/05/17 03:24:46;;;;;;;8.07;1.80;;;6.10;99.90;;;;;;5014683;28;20495;-58
2023/05/17 03:27:12;;;;;;;7.75;2.30;;;6.10;99.90;;;;;;5032914;28;20026;-58
2023/05/17 03:29:37;;;;;;;12.38;2.65;;;6.10;99.90;;;;;;5033069;28;20435;-56
2023/05/17 03:32:03;;;;;;;7.03;2.40;;;6.00;99.90;;;;;;5032689;28;20067;-58
2023/05/17 03:34:29;;;;;;;6.20;1.48;;;6.00;99.90;;;;;;5033159;28;20072;-58
2023/05/17 03:36:54;;;;;;;9.88;2.55;;;6.00;99.90;;;;;;5034316;28;20313;-55
2023/05/17 03:39:20;;;;;;;10.25;2.83;;;6.00;99.90;;;;;;5033874;28;20053;-58
2023/05/17 03:41:45;;;;;;;9.85;2.28;;;5.90;99.90;;;;;;5034240;28;20017;-58
2023/05/17 03:44:11;;;;;;;11.35;2.38;;;5.90;99.90;;;;;;5034010;28;20021;-56
2023/05/17 03:46:37;;;;;;;8.25;2.13;;;5.90;99.90;;;;;;5033183;28;20256;-59
2023/05/17 03:49:02;;;;;;;11.00;3.10;;;5.80;99.90;;;;;;5033656;28;20025;-55
2023/05/17 03:51:28;;;;;;;4.70;1.92;;;5.80;99.90;;;;;;5032207;28;20048;-58
2023/05/17 03:53:58;;;;;;;10.45;2.50;;;5.80;99.90;;;;;;5033800;28;20033;-58
2023/05/17 03:56:24;;;;;;;8.98;2.38;;;5.80;99.90;;;;;;5032994;28;20040;-58
2023/05/17 03:58:49;;;;;;;6.72;1.98;;;5.70;99.90;;;;;;5034890;28;20079;-57
2023/05/17 04:01:19;;;;;;;13.18;2.63;;;5.70;99.90;;;;;;5033851;28;20306;-56
2023/05/17 04:03:45;;;;;;;6.93;2.25;;;5.70;99.90;;;;;;5031001;28;20021;-55
2023/05/17 04:06:13;;;;;;;8.73;2.45;;;5.70;99.90;;;;;;5034871;28;20024;-58
2023/05/17 04:08:39;;;;;;;8.73;2.80;;;5.70;99.90;;;;;;5032151;28;20041;-59
2023/05/17 04:11:14;;;;;;;13.77;3.90;;;5.70;99.90;;;;;;5032377;28;20025;-55
2023/05/17 04:13:40;;;;;;;12.68;2.33;;;5.70;99.90;;;;;;5034943;28;20025;-58
2023/05/17 04:16:09;;;;;;;8.43;2.00;;;5.70;99.90;;;;;;5033190;28;20510;-57
2023/05/17 04:18:36;;;;;;;7.97;2.13;;;5.80;99.90;;;;;;5033529;28;20025;-59
2023/05/17 04:21:02;;;;;;;11.10;2.42;;;5.80;99.90;;;;;;5032089;28;20025;-57
2023/05/17 04:23:28;;;;;;;6.82;2.20;;;5.90;99.90;;;;;;5033412;28;20036;-58
2023/05/17 04:25:55;;;;;;;9.20;3.05;;;6.00;99.90;;;;;;5034271;28;20030;-57
2023/05/17 04:28:21;;;;;;;4.20;1.83;;;6.00;99.90;;;;;;5032830;28;20092;-56
2023/05/17 04:30:46;;;;;;;6.75;2.22;;;6.10;99.90;;;;;;5033709;28;20554;-57
2023/05/17 04:33:12;;;;;;;14.63;2.28;;;6.10;99.90;;;;;;5034486;28;20022;-54
2023/05/17 04:35:40;;;;;;;9.38;2.72;;;6.10;99.90;;;;;;5035777;28;20064;-58
2023/05/17 04:38:06;;;;;;;7.30;2.72;;;6.10;99.90;;;;;;5020210;28;20127;-58
2023/05/17 04:40:32;;;;;;;9.95;2.55;;;6.10;99.90;;;;;;5036890;28;20045;-57
2023/05/17 04:42:57;;;;;;;9.88;2.50;;;6.10;99.90;;;;;;5036804;28;20059;-56
2023/05/17 04:45:23;;;;;;;9.15;2.67;;;6.20;99.90;;;;;;5037084;28;20025;-55
2023/05/17 04:47:49;;;;;;;11.00;2.65;;;6.20;99.90;;;;;;5036362;28;20021;-57
2023/05/17 04:50:16;;;;;;;7.95;2.65;;;6.30;99.90;;;;;;5037616;28;20396;-57
2023/05/17 04:52:41;;;;;;;6.57;2.25;;;6.40;99.90;;;;;;5036405;28;20370;-57
2023/05/17 04:55:07;;;;;;;9.73;2.42;;;6.50;99.90;;;;;;5036719;28;20267;-57
2023/05/17 04:57:33;;;;;;;8.07;2.15;;;6.50;99.90;;;;;;5036067;28;20041;-58
2023/05/17 04:59:58;;;;;;;7.35;2.40;;;6.60;99.90;;;;;;5037700;28;20076;-57
2023/05/17 05:02:24;;;;;;;10.77;3.60;;;6.70;99.90;;;;;;5035338;28;20043;-56
2023/05/17 05:04:49;;;;;;;8.43;2.40;;;6.70;99.90;;;;;;5035657;28;20109;-53
2023/05/17 05:07:15;;;;;;;11.13;2.78;;;6.70;99.90;;;;;;5034291;28;20496;-56
2023/05/17 05:09:40;;;;;;;16.98;3.20;;;6.80;99.90;;;;;;5035844;28;20041;-52
2023/05/17 05:12:06;;;;;;;9.73;2.45;;;6.80;99.90;;;;;;5036873;28;20032;-57
2023/05/17 05:14:32;;;;;;;9.98;2.58;;;6.90;99.90;;;;;;5036811;28;20321;-58
2023/05/17 05:16:58;;;;;;;9.35;2.55;;;6.90;99.90;;;;;;5036919;28;20120;-55
2023/05/17 05:19:23;;;;;;;10.15;2.85;;;6.90;99.90;;;;;;5036745;28;20026;-54
2023/05/17 05:21:49;;;;;;;12.75;2.85;;;7.00;99.90;;;;;;5036529;28;20041;-56
2023/05/17 05:24:14;;;;;;;11.90;3.13;;;7.00;99.90;;;;;;5036414;28;20091;-56
2023/05/17 05:26:40;;;;;;;7.88;1.98;;;7.10;99.90;;;;;;5036153;28;20036;-54
2023/05/17 05:29:05;;;;;;;18.38;2.95;;;7.10;99.90;;;;;;5036295;28;20075;-56
2023/05/17 05:31:31;;;;;;;7.50;1.95;;;7.10;99.90;;;;;;5037858;28;20487;-56
2023/05/17 05:33:56;;;;;;;10.05;3.03;;;7.10;99.90;;;;;;5037173;28;20028;-55
2023/05/17 05:36:22;;;;;;;5.85;2.67;;;7.20;99.90;;;;;;5036545;28;20104;-56
2023/05/17 05:38:47;;;;;;;8.52;2.42;;;7.20;99.90;;;;;;5035446;28;20036;-53
2023/05/17 05:41:13;;;;;;;13.88;2.50;;;7.20;99.90;;;;;;5034820;28;20116;-53
2023/05/17 05:43:39;;;;;;;10.05;2.67;;;7.30;99.90;;;;;;5036603;28;20106;-55
2023/05/17 05:46:04;;;;;;;15.20;2.53;;;7.40;99.90;;;;;;5034110;28;20432;-53
2023/05/17 05:48:30;;;;;;;10.02;2.63;;;7.40;99.90;;;;;;5034587;28;20029;-57
2023/05/17 05:50:55;;;;;;;10.40;2.05;;;7.50;99.90;;;;;;5036592;28;20111;-54
2023/05/17 05:53:21;;;;;;;12.02;2.72;;;7.60;99.90;;;;;;5035762;28;20056;-52
2023/05/17 05:55:48;;;;;;;8.48;2.33;;;7.60;99.90;;;;;;5035581;28;20101;-54
2023/05/17 05:58:13;;;;;;;13.73;2.60;;;7.70;99.90;;;;;;5035663;28;20446;-52
2023/05/17 06:00:39;;;;;;;6.30;2.08;;;7.90;99.90;;;;;;5035746;28;20033;-54
2023/05/17 06:03:05;;;;;;;8.35;2.30;;;8.10;99.90;;;;;;5035715;28;20047;-55
2023/05/17 06:05:31;;;;;;;6.03;2.20;;;8.30;99.90;;;;;;5035796;28;20028;-57
2023/05/17 06:07:56;;;;;;;6.63;2.15;;;8.40;99.90;;;;;;5032279;28;20375;-55
2023/05/17 06:10:23;;;;;;;7.97;2.38;;;8.40;99.90;;;;;;5031319;28;20057;-56
2023/05/17 06:12:48;;;;;;;7.50;1.77;;;8.50;99.90;;;;;;5032755;28;20052;-55
2023/05/17 06:15:14;;;;;;;6.68;1.98;;;8.50;99.90;;;;;;5033475;28;20045;-58
2023/05/17 06:17:39;;;;;;;12.15;2.10;;;8.40;99.90;;;;;;5032330;28;20069;-58
2023/05/17 06:20:05;;;;;;;17.58;2.60;;;8.40;99.90;;;;;;5035602;28;20040;-54
2023/05/17 06:22:31;;;;;;;10.77;1.95;;;8.40;99.90;;;;;;5034933;28;20108;-56
2023/05/17 06:24:57;;;;;;;8.00;2.25;;;8.30;99.90;;;;;;5035862;28;20096;-53
2023/05/17 06:27:22;;;;;;;7.88;2.30;;;8.30;99.90;;;;;;5035817;28;20028;-58
2023/05/17 06:29:48;;;;;;;11.88;2.55;;;8.30;99.90;;;;;;5034457;28;20510;-55
2023/05/17 06:32:13;;;;;;;14.68;3.08;;;8.30;99.90;;;;;;5035160;28;20032;-56
2023/05/17 06:34:39;;;;;;;11.43;2.40;;;8.30;99.90;;;;;;5034927;28;20028;-58
2023/05/17 06:37:05;;;;;;;7.80;2.63;;;8.30;99.90;;;;;;5034427;28;20037;-57
2023/05/17 06:39:30;;;;;;;6.95;1.95;;;8.30;99.90;;;;;;5035740;28;20033;-56
2023/05/17 06:41:56;;;;;;;9.13;2.35;;;8.40;99.90;;;;;;5035298;28;20319;-58
2023/05/17 06:44:21;;;;;;;6.60;2.03;;;8.40;99.90;;;;;;5035607;28;20480;-57
2023/05/17 06:46:47;;;;;;;7.57;1.98;;;8.50;99.90;;;;;;5034867;28;20017;-53
2023/05/17 06:49:12;;;;;;;13.60;2.13;;;8.50;99.90;;;;;;5032365;28;20376;-57
2023/05/17 06:51:38;;;;;;;7.10;2.08;;;8.50;99.90;;;;;;5035166;28;20456;-58
2023/05/17 06:54:03;;;;;;;5.18;1.73;;;8.60;99.90;;;;;;5034719;28;20101;-58
2023/05/17 06:56:30;;;;;;;12.98;2.10;;;8.70;99.90;;;;;;5034745;28;20033;-58
2023/05/17 06:58:55;;;;;;;10.65;2.50;;;8.90;99.90;;;;;;5032941;28;20033;-58
2023/05/17 07:01:21;;;;;;;8.27;1.92;;;8.90;99.90;;;;;;5033947;28;20048;-58
2023/05/17 07:03:46;;;;;;;7.93;2.08;;;8.90;99.90;;;;;;5035108;28;20041;-56
2023/05/17 07:06:12;;;;;;;9.65;2.45;;;8.80;99.90;;;;;;5033374;28;20388;-56
2023/05/17 07:08:39;;;;;;;5.57;2.03;;;8.80;99.90;;;;;;5033850;28;20041;-59
2023/05/17 07:11:04;;;;;;;11.27;1.80;;;8.80;99.90;;;;;;5034645;28;20384;-54
2023/05/17 07:13:30;;;;;;;10.00;1.83;;;8.90;99.90;;;;;;5035189;28;20021;-58
2023/05/17 07:15:55;;;;;;;7.10;1.48;;;8.80;99.90;;;;;;5033720;28;20094;-59
2023/05/17 07:18:21;;;;;;;5.70;1.38;;;8.70;99.90;;;;;;5032845;28;20032;-59
2023/05/17 07:20:46;;;;;;;8.75;1.67;;;8.70;99.90;;;;;;5034303;28;20471;-59
2023/05/17 07:23:12;;;;;;;4.82;1.38;;;8.70;99.90;;;;;;5016679;28;20555;-60
2023/05/17 07:25:39;;;;;;;7.97;2.03;;;8.70;99.90;;;;;;5034530;28;20400;-58
2023/05/17 07:28:05;;;;;;;14.63;1.90;;;8.80;99.90;;;;;;5033504;28;20044;-61
2023/05/17 07:30:30;;;;;;;9.50;2.42;;;8.90;99.90;;;;;;5034255;28;20495;-58
2023/05/17 07:32:56;;;;;;;12.15;2.47;;;9.00;99.90;;;;;;5033433;28;20025;-60
2023/05/17 07:35:22;;;;;;;8.15;1.60;;;9.10;99.90;;;;;;5034327;28;20026;-57
2023/05/17 07:37:47;;;;;;;9.35;3.15;;;9.30;99.90;;;;;;5033791;28;20109;-59
2023/05/17 07:40:13;;;;;;;9.35;2.25;;;9.30;99.90;;;;;;5033285;28;20064;-60
2023/05/17 07:42:38;;;;;;;7.70;1.70;;;9.30;99.90;;;;;;5032535;28;20021;-57
2023/05/17 07:45:04;;;;;;;5.45;1.90;;;9.40;99.90;;;;;;5033318;28;20052;-56
2023/05/17 07:47:30;;;;;;;10.90;2.17;;;9.40;99.90;;;;;;5034178;28;20492;-59
2023/05/17 07:49:56;;;;;;;7.47;1.83;;;9.30;99.90;;;;;;5032979;28;20074;-56
2023/05/17 07:52:21;;;;;;;7.55;1.90;;;9.20;99.90;;;;;;5034736;28;20048;-56
2023/05/17 07:54:47;;;;;;;7.05;2.28;;;9.20;99.90;;;;;;5033300;28;20398;-58
2023/05/17 07:57:12;;;;;;;7.70;2.30;;;9.30;99.90;;;;;;5034106;28;20029;-58
2023/05/17 07:59:38;;;;;;;6.25;1.40;;;9.40;99.90;;;;;;5032962;28;20503;-57
2023/05/17 08:02:04;;;;;;;7.80;1.98;;;9.40;99.90;;;;;;5032172;28;20060;-60
2023/05/17 08:04:29;;;;;;;8.07;2.05;;;9.40;99.90;;;;;;5033217;28;20360;-59
2023/05/17 08:06:55;;;;;;;10.85;2.38;;;9.30;99.90;;;;;;5034036;28;20029;-56
2023/05/17 08:09:20;;;;;;;5.70;1.85;;;9.30;99.90;;;;;;5058933;22;20445;-55
2023/05/17 08:11:46;;;;;;;5.80;2.25;;;9.30;99.90;;;;;;5057040;28;20105;-54
2023/05/17 08:14:15;;;;;;;6.03;1.73;;;9.30;99.90;;;;;;5058663;28;20039;-54
2023/05/17 08:16:41;;;;;;;5.63;1.63;;;9.40;99.90;;;;;;5058465;28;20440;-56
2023/05/17 08:19:11;;;;;;;4.35;1.80;;;9.50;99.90;;;;;;5058571;28;20514;-52
2023/05/17 08:21:37;;;;;;;5.53;1.80;;;9.60;99.90;;;;;;5056511;28;20037;-52
2023/05/17 08:24:03;;;;;;;8.13;2.00;;;9.60;99.90;;;;;;5057663;28;20061;-56
2023/05/17 08:26:29;;;;;;;13.80;2.90;;;9.80;99.90;;;;;;5040514;28;20454;-50
2023/05/17 08:28:55;;;;;;;6.95;1.95;;;9.90;99.90;;;;;;5053652;28;20020;-51
2023/05/17 08:31:20;;;;;;;20.85;2.78;;;10.00;99.90;;;;;;5055345;28;20506;-51
2023/05/17 08:33:46;;;;;;;8.35;2.00;;;10.20;99.00;;;;;;5055952;28;20035;-52
2023/05/17 08:36:11;;;;;;;8.82;1.92;;;10.40;99.00;;;;;;5057444;28;20449;-57
2023/05/17 08:38:37;;;;;;;8.20;1.88;;;10.70;99.90;;;;;;5056689;28;20029;-56
2023/05/17 08:41:02;;;;;;;9.60;1.77;;;11.00;98.70;;;;;;5057107;28;20039;-56
2023/05/17 08:43:32;;;;;;;8.23;1.77;;;10.90;95.90;;;;;;5056614;28;20036;-53
2023/05/17 08:45:58;;;;;;;4.65;2.03;;;10.80;97.20;;;;;;5055354;28;20040;-54
2023/05/17 08:48:25;;;;;;;4.90;1.73;;;10.90;98.70;;;;;;5056946;28;20025;-53
2023/05/17 08:50:53;;;;;;;5.85;1.55;;;11.10;97.30;;;;;;5057002;28;20117;-55
2023/05/17 08:53:19;;;;;;;8.00;2.42;;;11.20;98.00;;;;;;5057534;28;20092;-55
2023/05/17 08:55:47;;;;;;;4.68;1.90;;;11.20;97.60;;;;;;5057709;28;20119;-51
2023/05/17 08:58:15;;;;;;;9.32;1.48;;;11.20;96.50;;;;;;5055021;28;20122;-56
2023/05/17 09:00:42;;;;;;;9.63;2.63;;;11.00;97.50;;;;;;5055965;28;20126;-55
2023/05/17 09:03:10;;;;;;;5.60;1.80;;;10.80;97.50;;;;;;5057284;28;20032;-55
2023/05/17 09:05:36;;;;;;;17.02;3.03;;;11.00;98.50;;;;;;5056673;28;20033;-53
2023/05/17 09:08:02;;;;;;;8.10;1.88;;;11.10;98.00;;;;;;5056734;28;20087;-55
2023/05/17 09:10:30;;;;;;;10.10;2.45;;;11.10;98.10;;;;;;5057296;28;20041;-54
2023/05/17 09:12:56;;;;;;;7.40;2.55;;;11.40;98.30;;;;;;5054917;28;20126;-54
2023/05/17 09:15:22;;;;;;;6.35;2.33;;;11.70;98.80;;;;;;5056841;28;20397;-54
2023/05/17 09:17:52;;;;;;;7.38;2.08;;;11.90;98.70;;;;;;5055446;28;20020;-52
2023/05/17 09:20:23;;;;;;;12.27;2.13;;;11.90;96.40;;;;;;5055710;28;20090;-57
2023/05/17 09:22:49;;;;;;;10.75;2.25;;;11.90;96.20;;;;;;5056339;28;20096;-53
2023/05/17 09:25:20;;;;;;;8.75;2.63;;;11.40;96.10;;;;;;5054178;28;20100;-54
2023/05/17 09:27:45;;;;;;;7.13;1.85;;;11.20;97.30;;;;;;5055266;28;20044;-55
2023/05/17 09:30:11;;;;;;;5.97;1.42;;;11.30;97.50;;;;;;5056045;28;20070;-53
2023/05/17 09:32:44;;;;;;;6.43;2.08;;;11.30;96.60;;;;;;5055626;28;20083;-52
2023/05/17 09:35:10;;;;;;;5.25;1.52;;;11.40;98.20;;;;;;5056484;28;20467;-52
2023/05/17 09:37:37;;;;;;;7.45;1.60;;;11.70;98.30;;;;;;5055951;28;20025;-52
2023/05/17 09:40:05;;;;;;;10.95;2.00;;;11.50;94.90;;;;;;5056414;28;20036;-56
2023/05/17 09:42:35;;;;;;;6.95;1.50;;;11.30;95.30;;;;;;5055975;28;20024;-54
2023/05/17 09:45:01;;;;;;;7.80;2.60;;;11.10;95.40;;;;;;5054985;28;20370;-54
2023/05/17 09:47:29;;;;;;;13.98;2.47;;;11.20;95.80;;;;;;5057266;28;20031;-55
2023/05/17 09:50:01;;;;;;;10.23;1.73;;;11.40;96.80;;;;;;5055421;28;20459;-56
2023/05/17 09:52:34;;;;;;;3.78;1.42;;;11.50;96.00;;;;;;5055398;28;20235;-55
2023/05/17 09:55:00;;;;;;;6.95;1.90;;;11.30;97.10;;;;;;5036837;28;20144;-53
2023/05/17 09:57:27;;;;;;;6.47;2.50;;;11.40;96.90;;;;;;5054390;28;20060;-53
2023/05/17 09:59:56;;;;;;;6.93;2.08;;;11.50;96.90;;;;;;5037857;28;20060;-55
2023/05/17 10:02:26;;;;;;;6.25;1.83;;;11.50;97.60;;;;;;5055547;28;20059;-50
2023/05/17 10:04:55;;;;;;;11.35;2.45;;;11.50;96.60;;;;;;5054183;28;20033;-53
2023/05/17 10:07:24;;;;;;;5.00;1.85;;;11.80;98.60;;;;;;5054575;28;20433;-53
2023/05/17 10:09:51;;;;;;;5.63;1.70;;;12.10;98.00;;;;;;5054988;28;20118;-52
2023/05/17 10:12:20;;;;;;;7.10;1.52;;;12.20;97.30;;;;;;5053950;28;20383;-51
2023/05/17 10:14:46;;;;;;;14.30;2.47;;;12.00;97.20;;;;;;5053181;28;20033;-50
2023/05/17 10:17:13;;;;;;;9.30;1.42;;;12.10;98.20;;;;;;5055711;28;20284;-52
2023/05/17 10:19:40;;;;;;;8.20;2.22;;;12.20;97.20;;;;;;5055904;28;20108;-52
2023/05/17 10:22:06;;;;;;;7.45;1.90;;;12.20;97.70;;;;;;5054176;28;20066;-58
2023/05/17 10:24:35;;;;;;;7.57;1.75;;;12.20;95.80;;;;;;5053902;28;20025;-53
2023/05/17 10:27:02;;;;;;;6.60;1.77;;;12.10;96.40;;;;;;5055720;28;20290;-52
2023/05/17 10:29:30;;;;;;;4.20;1.80;;;12.00;96.80;;;;;;5053914;28;20100;-53
2023/05/17 10:31:57;;;;;;;5.18;1.83;;;12.00;96.90;;;;;;5053282;28;20454;-54
2023/05/17 10:34:26;;;;;;;5.10;1.98;;;11.90;98.70;;;;;;5056598;28;20107;-51
2023/05/17 10:36:52;;;;;;;6.40;1.98;;;12.00;99.10;;;;;;5055408;28;20439;-53
2023/05/17 10:39:20;;;;;;;6.68;1.80;;;12.00;99.30;;;;;;5054058;28;20021;-54
2023/05/17 10:41:50;;;;;;;4.70;1.92;;;12.00;98.90;;;;;;5054707;28;20049;-52
2023/05/17 10:44:16;;;;;;;4.97;1.38;;;12.10;98.90;;;;;;5055012;28;20025;-54
2023/05/17 10:46:56;;;;;;;7.10;1.92;;;12.10;97.00;;;;;;5055131;28;20067;-52
2023/05/17 10:49:28;;;;;;;5.88;1.42;;;12.00;96.70;;;;;;5052359;28;20051;-53
2023/05/17 10:51:56;;;;;;;6.22;1.50;;;12.00;97.90;;;;;;5055500;28;20440;-55
2023/05/17 10:54:34;;;;;;;4.55;1.10;;;12.00;97.90;;;;;;5034981;28;20350;-52
2023/05/17 10:57:04;;;;;;;5.53;1.77;;;11.90;98.50;;;;;;5053571;28;20032;-55
2023/05/17 10:59:30;;;;;;;6.35;1.55;;;11.80;99.20;;;;;;5054005;28;20043;-53
2023/05/17 11:02:08;;;;;;;5.07;1.45;;;11.80;99.30;;;;;;5050973;28;20525;-52
2023/05/17 11:04:40;;;;;;;6.75;1.83;;;12.00;98.80;;;;;;5055060;28;20036;-55
2023/05/17 11:07:19;;;;;;;10.45;2.05;;;12.00;99.70;;;;;;5053427;28;20908;-51
2023/05/17 11:09:54;;;;;;;9.35;1.70;;;11.80;99.90;;;;;;5052903;28;20162;-51
2023/05/17 11:12:34;;;;;;;3.75;1.55;;;11.80;99.90;;;;;;5053968;28;20034;-53
2023/05/17 11:15:11;;;;;;;4.32;1.63;;;11.70;99.90;;;;;;5035654;28;20025;-52
2023/05/17 11:17:42;;;;;;;;;;;11.90;99.90;;;;;;5054408;28;20033;-50
2023/05/17 11:20:15;;;;;;;5.60;2.15;;;11.90;98.40;;;;;;5051956;28;20044;-50
2023/05/17 11:22:42;;;;;;;3.40;1.20;;;11.70;98.10;;;;;;5052051;28;20112;-52
2023/05/17 11:25:10;;;;;;;3.80;1.63;;;11.80;98.50;;;;;;5050105;28;20078;-51
2023/05/17 11:27:47;;;;;;;8.38;1.77;;;12.00;98.80;;;;;;5041482;28;20119;-53
2023/05/17 11:30:25;;;;;;;;;;;12.10;98.40;;;;;;5050615;28;20024;-54
2023/05/17 11:33:06;;;;;;;4.70;1.92;;;12.10;97.90;;;;;;5034904;28;19908;-56
2023/05/17 11:35:38;;;;;;;8.45;2.08;;;11.90;99.90;;;;;;5052715;28;20031;-54
2023/05/17 11:38:18;;;;;;;6.50;1.77;;;11.80;99.90;;;;;;5054033;28;20325;-56
2023/05/17 11:40:46;;;;;;;3.63;1.77;;;11.70;99.90;;;;;;5052244;28;20025;-52
2023/05/17 11:43:13;;;;;;;5.47;1.98;;;11.80;99.90;;;;;;5053160;28;20492;-56
2023/05/17 11:45:53;;;;;;;6.88;1.63;;;11.90;99.90;;;;;;5054094;28;20025;-53
2023/05/17 11:48:24;;;;;;;4.13;1.55;;;12.20;99.90;;;;;;5051166;28;20032;-55
2023/05/17 11:50:52;;;;;;;6.22;1.67;;;12.50;99.90;;;;;;5053731;28;20032;-55
2023/05/17 11:53:19;;;;;;;5.75;1.63;;;12.70;99.00;;;;;;5053085;28;20495;-55
2023/05/17 11:55:47;;;;;;;4.65;1.50;;;13.00;97.40;;;;;;5052688;28;20040;-53
2023/05/17 11:58:15;;;;;;;5.97;2.05;;;13.10;97.00;;;;;;5050755;28;20021;-54
2023/05/17 12:00:41;;;;;;;4.93;1.77;;;13.10;98.30;;;;;;5053535;28;20037;-53
2023/05/17 12:03:23;;;;;;;4.72;2.10;;;13.20;96.50;;;;;;5052614;28;20403;-50
2023/05/17 12:06:00;;;;;;;7.25;2.83;;;13.10;95.10;;;;;;5051997;28;20036;-53
2023/05/17 12:08:26;;;;;;;4.75;2.00;;;12.70;95.30;;;;;;5054147;28;20055;-51
2023/05/17 12:10:52;;;;;;;4.72;2.05;;;12.50;95.20;;;;;;5053789;28;20167;-52
2023/05/17 12:13:19;;;;;;;4.10;1.77;;;12.30;95.70;;;;;;5050873;28;20111;-51
2023/05/17 12:15:52;;;;;;;9.10;2.17;;;12.20;94.80;;;;;;5052771;28;20691;-54
2023/05/17 12:18:19;;;;;;;4.15;2.30;;;12.10;95.90;;;;;;5053510;28;20509;-52
2023/05/17 12:20:55;;;;;;;4.88;1.77;;;12.00;95.70;;;;;;5053634;28;20033;-51
2023/05/17 12:23:28;;;;;;;5.28;1.65;;;11.90;95.20;;;;;;5053441;28;20025;-53
2023/05/17 12:26:06;;;;;;;7.15;1.88;;;12.10;95.90;;;;;;5052920;28;20021;-54
2023/05/17 12:28:33;;;;;;;4.28;1.55;;;12.30;94.50;;;;;;5053167;28;20021;-50
2023/05/17 12:31:02;;;;;;;7.40;1.90;;;12.40;95.20;;;;;;5051769;28;20028;-53
2023/05/17 12:33:34;;;;;;;5.32;2.00;;;12.40;94.60;;;;;;5052197;28;20021;-56
2023/05/17 12:36:02;;;;;;;3.63;1.52;;;12.30;94.20;;;;;;5053248;28;20102;-53
2023/05/17 12:38:31;;;;;;;12.07;1.73;;;12.30;94.20;;;;;;5052323;28;20075;-50
2023/05/17 12:41:02;;;;;;;7.63;1.75;;;12.10;93.60;;;;;;5052483;28;20386;-49
2023/05/17 12:43:30;;;;;;;3.92;1.42;;;12.20;93.80;;;;;;5050937;28;20086;-54
2023/05/17 12:46:13;;;;;;;5.93;1.90;;;12.30;95.20;;;;;;5053529;28;20087;-55
2023/05/17 12:48:41;;;;;;;4.68;1.40;;;12.50;93.90;;;;;;5052298;28;20029;-54
2023/05/17 12:51:21;;;;;;;4.63;1.20;;;12.50;95.10;;;;;;5051606;28;20490;-53